Latest Weather Observations for Spring Bay

IDT60801

Issued at 2:01 pm EST Thursday 3 September 2015 (issued every 30 minutes, with the page automatically refreshed every 10 minutes)

About weather observations | Map of weather stations | Latest weather observations for TAS | Other Formats
Station Details ID: 092133 Name: SPRING BAY NTC AWS Lat: -42.55 Lon: 147.93 Height: 0.0 m
Data from the previous 72 hours. | See also: Recent months for locations in Tasmania
Date/Time
EST
Temp
°C
App
Temp
°C
Dew
Point
Rel
Hum
%
Delta-T
°C
Wind Press
QNH
hPa
Press
MSL
hPa
Rain
since 9 am
mm
Dir
 
Spd
km/h
Gust
km/h
Spd
kts
Gust
kts
03/02:00pm 10.8 - - - - - - - - - 1015.1 1015.1 -
03/01:30pm 10.8 - - - - - - - - - 1015.0 1015.0 -
03/01:00pm 10.6 - - - - - - - - - 1014.7 1014.7 -
03/12:30pm 10.9 - - - - - - - - - 1014.5 1014.5 -
03/12:00pm 10.7 - - - - - - - - - 1014.7 1014.7 -
03/11:30am 10.4 - - - - - - - - - 1014.5 1014.5 -
03/11:00am 10.1 - - - - - - - - - 1014.3 1014.3 -
03/10:30am 10.2 - - - - - - - - - 1014.0 1014.0 -
03/10:00am 10.1 - - - - - - - - - 1013.8 1013.8 -
03/09:30am 9.5 - - - - - - - - - 1013.8 1013.8 -
03/09:00am 9.2 - - - - - - - - - 1013.7 1013.7 -
03/08:30am 9.1 - - - - - - - - - 1013.3 1013.3 -
03/08:00am 9.0 - - - - - - - - - 1012.7 1012.7 -
03/07:30am 9.4 - - - - - - - - - 1012.0 1012.0 -
03/07:00am 9.8 - - - - - - - - - 1011.3 1011.3 -
03/06:30am 9.4 - - - - - - - - - 1010.8 1010.8 -
03/06:00am 9.6 - - - - - - - - - 1010.2 1010.2 -
03/05:30am 9.6 - - - - - - - - - 1010.0 1010.0 -
03/05:00am 9.7 - - - - - - - - - 1009.8 1009.8 -
03/04:30am 9.8 - - - - - - - - - 1009.3 1009.3 -
03/04:00am 10.0 - - - - - - - - - 1008.9 1008.9 -
03/03:30am 9.7 - - - - - - - - - 1008.4 1008.4 -
03/03:00am 9.7 - - - - - - - - - 1007.9 1007.9 -
03/02:30am 9.4 - - - - - - - - - 1008.0 1008.0 -
03/02:00am 8.9 - - - - - - - - - 1007.9 1007.9 -
03/01:30am 8.9 - - - - - - - - - 1008.0 1008.0 -
03/01:00am 8.8 - - - - - - - - - 1008.3 1008.3 -
03/12:30am 9.1 - - - - - - - - - 1008.7 1008.7 -
03/12:00am 9.0 - - - - - - - - - 1008.8 1008.8 -
 
Date/Time
EST
Temp
°C
App
Temp
°C
Dew
Point
Rel
Hum
%
Delta-T
°C
Wind Press
QNH
hPa
Press
MSL
hPa
Rain
since 9 am
mm
Dir
 
Spd
km/h
Gust
km/h
Spd
kts
Gust
kts
02/11:30pm 9.2 - - - - - - - - - 1009.1 1009.1 -
02/11:00pm 9.6 - - - - - - - - - 1009.0 1009.0 -
02/10:30pm 10.0 - - - - - - - - - 1009.1 1009.1 -
02/10:00pm 9.9 - - - - - - - - - 1009.1 1009.1 -
02/09:30pm 9.7 - - - - - - - - - 1008.7 1008.7 -
02/09:00pm 9.8 - - - - - - - - - 1008.6 1008.6 -
02/08:30pm 9.8 - - - - - - - - - 1008.7 1008.7 -
02/08:00pm 9.9 - - - - - - - - - 1008.4 1008.4 -
02/07:30pm 10.0 - - - - - - - - - 1008.2 1008.2 -
02/07:00pm 10.6 - - - - - - - - - 1008.0 1008.0 -
02/06:30pm 10.6 - - - - - - - - - 1008.0 1008.0 -
02/06:00pm 11.0 - - - - - - - - - 1007.9 1007.9 -
02/05:30pm 11.0 - - - - - - - - - 1007.6 1007.6 -
02/05:00pm 11.6 - - - - - - - - - 1007.7 1007.7 -
02/04:30pm 11.9 - - - - - - - - - 1007.9 1007.9 -
02/04:00pm 12.0 - - - - - - - - - 1007.9 1007.9 -
02/03:30pm 11.9 - - - - - - - - - 1007.8 1007.8 -
02/03:00pm 12.5 - - - - - - - - - 1007.9 1007.9 -
02/02:30pm 12.8 - - - - - - - - - 1008.2 1008.2 -
02/02:00pm 12.6 - - - - - - - - - 1008.6 1008.6 -
02/01:30pm 13.0 - - - - - - - - - 1008.8 1008.8 -
02/01:00pm 12.0 - - - - - - - - - 1009.2 1009.2 -
02/12:30pm 12.4 - - - - - - - - - 1009.9 1009.9 -
02/12:00pm 11.0 - - - - - - - - - 1010.6 1010.6 -
02/11:30am 13.7 - - - - - - - - - 1011.2 1011.2 -
02/11:00am 11.0 - - - - - - - - - 1011.6 1011.6 -
02/10:30am 10.6 - - - - - - - - - 1012.0 1012.0 -
02/10:00am 10.7 - - - - - - - - - 1012.3 1012.3 -
02/09:30am 8.9 - - - - - - - - - 1012.5 1012.5 -
02/09:00am 8.4 - - - - - - - - - 1012.8 1012.8 -
02/08:30am 7.0 - - - - - - - - - 1013.0 1013.0 -
02/08:00am 4.5 - - - - - - - - - 1013.1 1013.1 -
02/07:30am 3.5 - - - - - - - - - 1012.9 1012.9 -
02/07:00am 3.3 - - - - - - - - - 1012.7 1012.7 -
02/06:30am 3.3 - - - - - - - - - 1012.7 1012.7 -
02/06:00am 3.6 - - - - - - - - - 1012.6 1012.6 -
02/05:30am 3.8 - - - - - - - - - 1012.8 1012.8 -
02/05:00am 4.0 - - - - - - - - - 1012.6 1012.6 -
02/04:30am 4.2 - - - - - - - - - 1012.9 1012.9 -
02/04:00am 4.9 - - - - - - - - - 1012.8 1012.8 -
02/03:30am 4.5 - - - - - - - - - 1012.8 1012.8 -
02/03:00am 4.8 - - - - - - - - - 1013.3 1013.3 -
02/02:30am 5.2 - - - - - - - - - 1013.6 1013.6 -
02/02:00am 5.7 - - - - - - - - - 1013.9 1013.9 -
02/01:30am 5.6 - - - - - - - - - 1014.0 1014.0 -
02/01:00am 6.0 - - - - - - - - - 1014.0 1014.0 -
02/12:30am 6.7 - - - - - - - - - 1014.1 1014.1 -
02/12:00am 6.5 - - - - - - - - - 1014.2 1014.2 -
 
Date/Time
EST
Temp
°C
App
Temp
°C
Dew
Point
Rel
Hum
%
Delta-T
°C
Wind Press
QNH
hPa
Press
MSL
hPa
Rain
since 9 am
mm
Dir
 
Spd
km/h
Gust
km/h
Spd
kts
Gust
kts
01/11:30pm 6.3 - - - - - - - - - 1014.1 1014.1 -
01/11:00pm 6.4 - - - - - - - - - 1014.3 1014.3 -
01/10:30pm 6.3 - - - - - - - - - 1014.3 1014.3 -
01/10:00pm 6.4 - - - - - - - - - 1014.3 1014.3 -
01/09:30pm 6.6 - - - - - - - - - 1014.3 1014.3 -
01/09:00pm 6.8 - - - - - - - - - 1014.1 1014.1 -
01/08:30pm 6.8 - - - - - - - - - 1014.1 1014.1 -
01/08:00pm 7.4 - - - - - - - - - 1013.8 1013.8 -
01/07:30pm 7.8 - - - - - - - - - 1013.7 1013.7 -
01/07:00pm 8.7 - - - - - - - - - 1013.6 1013.6 -
01/06:30pm 9.6 - - - - - - - - - 1013.5 1013.5 -
01/06:00pm 9.8 - - - - - - - - - 1013.5 1013.5 -
01/05:30pm 10.2 - - - - - - - - - 1013.3 1013.3 -
01/05:00pm 10.8 - - - - - - - - - 1013.2 1013.2 -
01/04:30pm 10.9 - - - - - - - - - 1013.3 1013.3 -
01/04:00pm 10.9 - - - - - - - - - 1013.6 1013.6 -
01/03:30pm 10.8 - - - - - - - - - 1013.7 1013.7 -
01/03:00pm 10.8 - - - - - - - - - 1013.8 1013.8 -
01/02:30pm 10.9 - - - - - - - - - 1013.9 1013.9 -
01/02:00pm 10.7 - - - - - - - - - 1014.1 1014.1 -
01/01:30pm 10.9 - - - - - - - - - 1014.3 1014.3 -
01/01:00pm 11.1 - - - - - - - - - 1014.5 1014.5 -
01/12:30pm 10.6 - - - - - - - - - 1014.9 1014.9 -
01/12:00pm 10.6 - - - - - - - - - 1015.2 1015.2 -
01/11:30am 10.5 - - - - - - - - - 1015.4 1015.4 -
01/11:00am 10.2 - - - - - - - - - 1015.5 1015.5 -
01/10:30am 9.8 - - - - - - - - - 1015.6 1015.6 -
01/10:00am 9.6 - - - - - - - - - 1015.9 1015.9 -
01/09:30am 9.6 - - - - - - - - - 1016.0 1016.0 -
01/09:00am 9.6 - - - - - - - - - 1016.0 1016.0 -
01/08:30am 9.0 - - - - - - - - - 1016.2 1016.2 -
01/08:00am 8.5 - - - - - - - - - 1016.2 1016.2 -
01/07:30am 8.2 - - - - - - - - - 1016.1 1016.1 -
01/07:00am 8.0 - - - - - - - - - 1016.1 1016.1 -
01/06:30am 7.9 - - - - - - - - - 1015.8 1015.8 -
01/06:00am 8.2 - - - - - - - - - 1015.8 1015.8 -
01/05:30am 8.4 - - - - - - - - - 1015.7 1015.7 -
01/05:00am 8.4 - - - - - - - - - 1015.7 1015.7 -
01/04:30am 8.2 - - - - - - - - - 1015.6 1015.6 -
01/04:00am 7.9 - - - - - - - - - 1015.8 1015.8 -
01/03:30am 8.2 - - - - - - - - - 1015.8 1015.8 -
01/03:00am 8.4 - - - - - - - - - 1016.1 1016.1 -
01/02:30am 8.1 - - - - - - - - - 1016.4 1016.4 -
01/02:00am 8.1 - - - - - - - - - 1016.7 1016.7 -
01/01:30am 7.9 - - - - - - - - - 1017.0 1017.0 -
01/01:00am 8.2 - - - - - - - - - 1017.1 1017.1 -
01/12:30am 8.4 - - - - - - - - - 1017.3 1017.3 -

Other Formats:

Comma delimited format used in spreadsheet applications
http://www.bom.gov.au/fwo/IDT60801/IDT60801.95987.axf

JavaScript Object Notation format (JSON) in row-major order
http://www.bom.gov.au/fwo/IDT60801/IDT60801.95987.json